Union City, CA (94587)

5:29 AM PST on December 05, 2016 (GMT -0800)
Terry's House | | Change Station

Elev 123 ft 37.59 °N, 122.00 °W | Updated 21 seconds ago

Overcast
Overcast
47.6 °F
Feels Like 48 °F
N
0.0
Wind Variable Wind from North
Gusts 1.0 mph

Today
High -- | Low -- °F
--% Chance of Precip.
Yesterday
High -- | Low -- °F
Precip. -- in
Pressure 30.12 in
Visibility 10.0 miles
Clouds Mostly Cloudy 800 ft
Overcast 1300 ft
Windchill 48 °F
Dew Point 46 °F
Humidity 95%
Rainfall 0.00 in
Snow Depth Not available.
7:08 AM 4:49 PM
Waxing Crescent, 31% visible
METAR KHWD 051254Z AUTO 00000KT 10SM BKN008 OVC013 12/09 A3009 RMK AO2 CIG 005V011 SLP199 T01170089
Pressure 30.12 in
Visibility 10.0 miles
Clouds Mostly Cloudy 800 ft
Overcast 1300 ft
Windchill 48 °F
Dew Point 46 °F
Humidity 95%
Rainfall 0.00 in
Snow Depth Not available.
7:08 AM 4:49 PM
Waxing Crescent, 31% visible
METAR KHWD 051254Z AUTO 00000KT 10SM BKN008 OVC013 12/09 A3009 RMK AO2 CIG 005V011 SLP199 T01170089

10-Day Weather Forecast

Almanac

Astronomy

Dec. 05, 2016 Rise Set
Actual Time
Civil Twilight
Nautical Twilight
Astronomical Twilight
Moon
Length of Visible Light
Length of Day
Tomorrow will be .
, % of the Moon is Illuminated

Today's Extremes

State Highs State Lows

Community

WunderPhotos

Upload Photos

1,955,780 photos uploaded!

WunderBlog® & News

Nearby

Air Quality

  Air Quality AQ Index Pollutant
Not available.

Snow Depth

Station Depth Elevation

Earthquake Activity

City Distance Mag. Time & Date
Minimum magnitude displayed is 2.5.

Coastal Water Temperatures

Place Temperature

Stations

Nearby Weather Stations

Station Location Temp. Windchill Dew Point Humidity Wind Precip. Elev Updated Type
                   

Watches & Warnings

There are currently no watches in effect.